Time;durP1;ratioP1;P1;durP2;ratioP2;P2;SDS_P1;SDS_P2;PMS_P1;PMS_P2;Temp;Humidity;BMP_temperature;BMP_pressure;BME280_temperature;BME280_humidity;BME280_pressure;Samples;Min_cycle;Max_cycle;Signal;HPM_P1;HPM_P2
2022/04/12 00:00:18;;;;;;;;;;;22.70;39.50;;;;;;6297438;27;19935;-47
2022/04/12 00:03:19;;;;;;;;;;;22.70;39.60;;;;;;6278707;28;19955;-47
2022/04/12 00:06:21;;;;;;;;;;;22.60;39.60;;;;;;6297696;27;19923;-48
2022/04/12 00:09:22;;;;;;;;;;;22.70;39.60;;;;;;6299938;27;19923;-48
2022/04/12 00:12:24;;;;;;;;;;;22.70;39.60;;;;;;6272577;28;19935;-51
2022/04/12 00:15:26;;;;;;;;;;;22.60;39.60;;;;;;6275926;28;20939;-48
2022/04/12 00:21:45;;;;;;;;;;;22.50;39.70;;;;;;6283527;27;19919;-50
2022/04/12 00:24:46;;;;;;;;;;;22.60;39.60;;;;;;6301495;28;19927;-46
2022/04/12 00:27:49;;;;;;;;;;;22.70;39.70;;;;;;6296359;27;20038;-46
2022/04/12 00:30:51;;;;;;;;;;;22.70;39.80;;;;;;6264696;28;20486;-49
2022/04/12 00:33:52;;;;;;;;;;;22.70;39.80;;;;;;6260723;28;19928;-57
2022/04/12 00:36:54;;;;;;;;;;;22.60;39.80;;;;;;6282884;28;20011;-47
2022/04/12 00:39:55;;;;;;;;;;;22.60;39.70;;;;;;6289487;27;19920;-49
2022/04/12 00:42:56;;;;;;;;;;;22.60;39.80;;;;;;6296346;27;19923;-52
2022/04/12 00:46:00;;;;;;;;;;;22.60;39.80;;;;;;6295866;27;20042;-47
2022/04/12 00:49:01;;;;;;;;;;;22.60;39.80;;;;;;6300567;28;20803;-49
2022/04/12 00:52:03;;;;;;;;;;;22.40;39.80;;;;;;6285753;27;20708;-46
2022/04/12 00:55:05;;;;;;;;;;;22.50;39.80;;;;;;6278198;28;19959;-46
2022/04/12 00:58:07;;;;;;;;;;;22.80;40.00;;;;;;6287102;28;19934;-49
2022/04/12 01:01:09;;;;;;;;;;;22.70;40.00;;;;;;6278928;28;19970;-46
2022/04/12 01:04:11;;;;;;;;;;;22.80;40.00;;;;;;6293391;27;20058;-47
2022/04/12 01:07:13;;;;;;;;;;;22.50;39.90;;;;;;6289795;27;20033;-49
2022/04/12 01:10:16;;;;;;;;;;;22.60;40.00;;;;;;6295312;27;20639;-50
2022/04/12 01:13:18;;;;;;;;;;;22.30;39.80;;;;;;6281417;28;20702;-46
2022/04/12 01:16:20;;;;;;;;;;;22.60;40.00;;;;;;6276348;28;19927;-51
2022/04/12 01:19:21;;;;;;;;;;;22.40;39.90;;;;;;6298218;27;19992;-46
2022/04/12 01:22:24;;;;;;;;;;;22.60;40.10;;;;;;6294120;27;20827;-49
2022/04/12 01:25:26;;;;;;;;;;;22.30;39.80;;;;;;6292329;27;19928;-50
2022/04/12 01:28:28;;;;;;;;;;;22.50;40.00;;;;;;6288584;28;20003;-51
2022/04/12 01:31:29;;;;;;;;;;;22.50;40.00;;;;;;6297693;28;19930;-50
2022/04/12 01:34:30;;;;;;;;;;;22.60;40.10;;;;;;6288894;28;19935;-49
2022/04/12 01:37:32;;;;;;;;;;;22.50;40.10;;;;;;6300313;28;19927;-47
2022/04/12 01:40:34;;;;;;;;;;;22.60;40.10;;;;;;6304827;27;19954;-52
2022/04/12 01:43:35;;;;;;;;;;;22.60;40.10;;;;;;6284254;27;19962;-49
2022/04/12 01:46:36;;;;;;;;;;;22.60;40.20;;;;;;6276832;28;19931;-47
2022/04/12 01:49:38;;;;;;;;;;;22.40;40.00;;;;;;6292607;27;20833;-48
2022/04/12 01:52:39;;;;;;;;;;;22.50;40.10;;;;;;6287844;28;20030;-49
2022/04/12 01:55:41;;;;;;;;;;;22.50;40.10;;;;;;6286796;28;20445;-51
2022/04/12 01:58:43;;;;;;;;;;;22.50;40.10;;;;;;6298550;28;19940;-46
2022/04/12 02:01:44;;;;;;;;;;;22.40;40.10;;;;;;6298635;27;19930;-48
2022/04/12 02:04:46;;;;;;;;;;;22.50;40.20;;;;;;6297129;27;20096;-47
2022/04/12 02:07:47;;;;;;;;;;;22.50;40.20;;;;;;6302159;28;20022;-48
2022/04/12 02:10:49;;;;;;;;;;;22.50;40.20;;;;;;6290188;28;19927;-47
2022/04/12 02:13:50;;;;;;;;;;;22.60;40.20;;;;;;6301493;28;19945;-46
2022/04/12 02:16:51;;;;;;;;;;;22.60;40.20;;;;;;6280612;28;20191;-47
2022/04/12 02:19:53;;;;;;;;;;;22.60;40.20;;;;;;6278139;27;19982;-46
2022/04/12 02:22:54;;;;;;;;;;;22.60;40.20;;;;;;6296896;27;20341;-47
2022/04/12 02:25:56;;;;;;;;;;;22.60;40.20;;;;;;6289856;27;19950;-46
2022/04/12 02:28:58;;;;;;;;;;;22.60;40.20;;;;;;6279887;27;20737;-49
2022/04/12 02:31:59;;;;;;;;;;;22.50;40.10;;;;;;6272946;28;20240;-48
2022/04/12 02:35:00;;;;;;;;;;;22.50;40.10;;;;;;6286765;28;20166;-48
2022/04/12 02:38:02;;;;;;;;;;;22.50;40.20;;;;;;6288768;27;20334;-47
2022/04/12 02:41:04;;;;;;;;;;;22.70;40.20;;;;;;6285325;27;20426;-46
2022/04/12 02:44:06;;;;;;;;;;;22.50;40.20;;;;;;6283214;28;20105;-48
2022/04/12 02:47:07;;;;;;;;;;;22.60;40.20;;;;;;6272471;28;20189;-47
2022/04/12 02:50:08;;;;;;;;;;;22.60;40.20;;;;;;6292211;27;20042;-46
2022/04/12 02:53:10;;;;;;;;;;;22.60;40.20;;;;;;6299063;27;19930;-46
2022/04/12 02:56:12;;;;;;;;;;;22.60;40.20;;;;;;6292239;28;20302;-55
2022/04/12 02:59:13;;;;;;;;;;;22.50;40.20;;;;;;6274279;28;20482;-48
2022/04/12 03:02:15;;;;;;;;;;;22.60;40.30;;;;;;6273743;28;19924;-49
2022/04/12 03:05:17;;;;;;;;;;;22.50;40.20;;;;;;6293977;27;19931;-48
2022/04/12 03:08:18;;;;;;;;;;;22.60;40.30;;;;;;6282908;27;20823;-48
2022/04/12 03:11:20;;;;;;;;;;;22.60;40.30;;;;;;6287361;27;20053;-46
2022/04/12 03:14:21;;;;;;;;;;;22.40;40.20;;;;;;6293168;27;19966;-48
2022/04/12 03:17:23;;;;;;;;;;;22.60;40.30;;;;;;6285137;27;19926;-50
2022/04/12 03:20:24;;;;;;;;;;;22.70;40.40;;;;;;6301055;28;19934;-49
2022/04/12 03:23:25;;;;;;;;;;;22.60;40.30;;;;;;6302852;27;20212;-48
2022/04/12 03:26:27;;;;;;;;;;;22.50;40.30;;;;;;6291143;27;20005;-48
2022/04/12 03:29:29;;;;;;;;;;;22.60;40.40;;;;;;6278024;27;20601;-47
2022/04/12 03:32:30;;;;;;;;;;;22.60;40.40;;;;;;6294346;27;20609;-49
2022/04/12 03:35:32;;;;;;;;;;;22.60;40.40;;;;;;6294988;27;20718;-47
2022/04/12 03:38:35;;;;;;;;;;;22.60;40.50;;;;;;6281843;28;19924;-47
2022/04/12 03:41:37;;;;;;;;;;;22.50;40.50;;;;;;6275600;28;19923;-45
2022/04/12 03:44:38;;;;;;;;;;;22.50;40.40;;;;;;6268893;28;19999;-45
2022/04/12 03:47:40;;;;;;;;;;;22.40;40.30;;;;;;6272649;28;19923;-46
2022/04/12 03:50:41;;;;;;;;;;;22.20;40.20;;;;;;6285735;27;20043;-45
2022/04/12 03:53:42;;;;;;;;;;;22.60;40.50;;;;;;6269713;28;19935;-47
2022/04/12 03:56:44;;;;;;;;;;;22.50;40.40;;;;;;6269025;28;20043;-44
2022/04/12 03:59:46;;;;;;;;;;;22.60;40.50;;;;;;6276580;27;20615;-47
2022/04/12 04:02:47;;;;;;;;;;;22.60;40.50;;;;;;6286888;27;19927;-45
2022/04/12 04:05:49;;;;;;;;;;;22.60;40.60;;;;;;6275404;28;19923;-46
2022/04/12 04:08:50;;;;;;;;;;;22.60;40.70;;;;;;6262395;28;20764;-45
2022/04/12 04:11:53;;;;;;;;;;;22.50;40.60;;;;;;6280253;27;20361;-44
2022/04/12 04:14:54;;;;;;;;;;;22.50;40.60;;;;;;6273895;28;20223;-45
2022/04/12 04:17:56;;;;;;;;;;;22.50;40.70;;;;;;6279206;27;20154;-45
2022/04/12 04:20:57;;;;;;;;;;;22.40;40.60;;;;;;6274623;27;19966;-48
2022/04/12 04:23:59;;;;;;;;;;;22.50;40.80;;;;;;6284207;27;19923;-47
2022/04/12 04:27:05;;;;;;;;;;;22.50;40.70;;;;;;6283867;27;20212;-47
2022/04/12 04:30:08;;;;;;;;;;;22.40;40.70;;;;;;6262609;28;20058;-44
2022/04/12 04:33:09;;;;;;;;;;;23.30;41.20;;;;;;6274088;28;20022;-45
2022/04/12 04:36:10;;;;;;;;;;;22.40;40.80;;;;;;6271584;28;20477;-45
2022/04/12 04:39:12;;;;;;;;;;;22.50;40.80;;;;;;6271630;28;20188;-45
2022/04/12 04:42:14;;;;;;;;;;;22.50;40.90;;;;;;6273601;28;20227;-46
2022/04/12 04:45:15;;;;;;;;;;;22.40;40.90;;;;;;6274817;27;20390;-47
2022/04/12 04:48:16;;;;;;;;;;;22.50;40.90;;;;;;6275237;28;20148;-47
2022/04/12 04:51:19;;;;;;;;;;;22.50;40.90;;;;;;6265664;28;20299;-46
2022/04/12 04:54:20;;;;;;;;;;;22.50;40.90;;;;;;6283627;27;19928;-45
2022/04/12 04:57:22;;;;;;;;;;;22.50;41.00;;;;;;6289097;27;20355;-47
2022/04/12 05:00:25;;;;;;;;;;;22.80;41.20;;;;;;6289726;27;20707;-45
2022/04/12 05:03:27;;;;;;;;;;;22.40;41.00;;;;;;6256041;28;20145;-45
2022/04/12 05:06:28;;;;;;;;;;;22.50;41.00;;;;;;6270717;27;20397;-46
2022/04/12 05:09:30;;;;;;;;;;;22.60;41.10;;;;;;6290682;27;20043;-45
2022/04/12 05:12:32;;;;;;;;;;;22.50;41.10;;;;;;6281220;28;19958;-46
2022/04/12 05:15:33;;;;;;;;;;;22.30;41.00;;;;;;6283446;28;20042;-49
2022/04/12 05:18:37;;;;;;;;;;;22.50;41.20;;;;;;6284266;27;19935;-48
2022/04/12 05:21:38;;;;;;;;;;;22.40;41.10;;;;;;6274241;28;20231;-46
2022/04/12 05:24:40;;;;;;;;;;;22.30;41.10;;;;;;6283453;28;19946;-45
2022/04/12 05:27:43;;;;;;;;;;;22.40;41.10;;;;;;6275292;28;19975;-48
2022/04/12 05:30:45;;;;;;;;;;;22.40;41.20;;;;;;6280305;27;20284;-45
2022/04/12 05:33:46;;;;;;;;;;;22.50;41.20;;;;;;6294975;27;19924;-45
2022/04/12 05:36:48;;;;;;;;;;;22.40;41.20;;;;;;6289721;27;20295;-45
2022/04/12 05:39:49;;;;;;;;;;;22.30;41.10;;;;;;6269034;27;19926;-47
2022/04/12 05:42:51;;;;;;;;;;;22.50;41.30;;;;;;6291526;27;19924;-45
2022/04/12 05:45:53;;;;;;;;;;;22.40;41.20;;;;;;6254621;27;19931;-44
2022/04/12 05:48:54;;;;;;;;;;;22.50;41.20;;;;;;6255729;28;19935;-45
2022/04/12 05:51:55;;;;;;;;;;;22.60;41.20;;;;;;6269663;27;19963;-46
2022/04/12 05:54:57;;;;;;;;;;;22.50;41.00;;;;;;6261987;28;20275;-46
2022/04/12 05:58:00;;;;;;;;;;;22.40;40.90;;;;;;6278113;27;20036;-47
2022/04/12 06:01:02;;;;;;;;;;;22.60;41.00;;;;;;6247642;28;19928;-45
2022/04/12 06:04:03;;;;;;;;;;;22.80;41.10;;;;;;6277870;28;20832;-45
2022/04/12 06:07:05;;;;;;;;;;;22.60;41.00;;;;;;6254485;28;20039;-47
2022/04/12 06:10:06;;;;;;;;;;;22.60;41.00;;;;;;6265892;27;19923;-45
2022/04/12 06:13:08;;;;;;;;;;;22.60;41.10;;;;;;6266160;27;19935;-45
2022/04/12 06:16:10;;;;;;;;;;;22.40;41.00;;;;;;6261732;28;19967;-46
2022/04/12 06:19:11;;;;;;;;;;;22.60;41.00;;;;;;6256268;28;19930;-45
2022/04/12 06:22:13;;;;;;;;;;;22.50;41.00;;;;;;6264488;27;20896;-47
2022/04/12 06:25:15;;;;;;;;;;;22.70;41.00;;;;;;6251381;27;20053;-46
2022/04/12 06:28:17;;;;;;;;;;;22.70;41.00;;;;;;6257074;27;19931;-45
2022/04/12 06:31:18;;;;;;;;;;;22.70;41.10;;;;;;6258158;28;21633;-45
2022/04/12 06:34:20;;;;;;;;;;;22.70;41.00;;;;;;6250069;27;20771;-49
2022/04/12 06:37:23;;;;;;;;;;;22.70;41.10;;;;;;6236890;28;19924;-45
2022/04/12 06:40:25;;;;;;;;;;;22.60;41.30;;;;;;6195154;28;20827;-46
2022/04/12 06:43:27;;;;;;;;;;;22.70;41.00;;;;;;6195440;28;20020;-44
2022/04/12 06:46:29;;;;;;;;;;;22.80;41.00;;;;;;6161729;28;19950;-45
2022/04/12 06:49:30;;;;;;;;;;;22.70;41.00;;;;;;6173982;28;19928;-49
2022/04/12 06:52:32;;;;;;;;;;;22.70;41.00;;;;;;6192019;28;20070;-45
2022/04/12 06:55:33;;;;;;;;;;;22.70;41.00;;;;;;6145187;28;20186;-47
2022/04/12 06:58:36;;;;;;;;;;;22.60;41.00;;;;;;6169659;27;20060;-46
2022/04/12 07:01:37;;;;;;;;;;;22.70;41.10;;;;;;6131619;27;22243;-51
2022/04/12 07:04:39;;;;;;;;;;;22.80;41.10;;;;;;6150270;27;19928;-48
2022/04/12 07:07:41;;;;;;;;;;;22.80;41.20;;;;;;6164917;28;19962;-45
2022/04/12 07:10:45;;;;;;;;;;;22.80;41.20;;;;;;6073669;28;20062;-47
2022/04/12 07:13:47;;;;;;;;;;;22.80;41.20;;;;;;6127861;27;19931;-48
2022/04/12 07:16:48;;;;;;;;;;;22.80;41.20;;;;;;6133281;27;20441;-45
2022/04/12 07:19:50;;;;;;;;;;;22.90;41.20;;;;;;6090277;27;19999;-47
2022/04/12 07:22:51;;;;;;;;;;;22.80;41.10;;;;;;6136288;27;20030;-47
2022/04/12 07:25:52;;;;;;;;;;;22.80;41.10;;;;;;6113666;27;19927;-47
2022/04/12 07:28:58;;;;;;;;;;;22.70;41.00;;;;;;6094020;27;19927;-47
2022/04/12 07:32:02;;;;;;;;;;;22.80;41.10;;;;;;6075791;28;20833;-49
2022/04/12 07:35:06;;;;;;;;;;;22.80;41.10;;;;;;6140035;28;19935;-47
2022/04/12 07:38:07;;;;;;;;;;;22.90;41.30;;;;;;6153482;27;33174;-47
2022/04/12 07:41:09;;;;;;;;;;;22.80;41.20;;;;;;6152195;27;20020;-46
2022/04/12 07:44:12;;;;;;;;;;;22.90;41.30;;;;;;6090121;27;19934;-49
2022/04/12 07:47:13;;;;;;;;;;;22.90;41.20;;;;;;6019285;28;20017;-45
2022/04/12 07:50:15;;;;;;;;;;;22.90;41.20;;;;;;6102663;27;19975;-49
2022/04/12 07:53:16;;;;;;;;;;;22.80;41.20;;;;;;6093680;27;20066;-46
2022/04/12 07:56:23;;;;;;;;;;;22.90;41.30;;;;;;6102283;27;20147;-47
2022/04/12 07:59:25;;;;;;;;;;;22.90;41.20;;;;;;6087075;27;19933;-50
2022/04/12 08:02:27;;;;;;;;;;;22.80;41.20;;;;;;6062391;27;21147;-46
2022/04/12 08:05:29;;;;;;;;;;;22.90;41.20;;;;;;6066945;27;22133;-45
2022/04/12 08:08:32;;;;;;;;;;;22.90;41.20;;;;;;6063500;27;19966;-46
2022/04/12 08:11:34;;;;;;;;;;;22.80;41.10;;;;;;6077220;27;20043;-46
2022/04/12 08:14:36;;;;;;;;;;;22.80;41.10;;;;;;6119402;27;19927;-46
2022/04/12 08:17:37;;;;;;;;;;;23.00;41.30;;;;;;6109834;27;19934;-48
2022/04/12 08:20:39;;;;;;;;;;;23.00;41.20;;;;;;6101328;27;21089;-45
2022/04/12 08:23:40;;;;;;;;;;;23.20;41.20;;;;;;6077432;27;19931;-46
2022/04/12 08:26:41;;;;;;;;;;;22.90;41.10;;;;;;6103929;27;19928;-46
2022/04/12 08:29:44;;;;;;;;;;;22.90;41.20;;;;;;6076570;27;20037;-49
2022/04/12 08:32:46;;;;;;;;;;;23.00;41.20;;;;;;6071971;27;20023;-46
2022/04/12 08:35:47;;;;;;;;;;;23.10;41.20;;;;;;6094763;27;19927;-46
2022/04/12 08:38:50;;;;;;;;;;;23.00;41.30;;;;;;6074737;27;19928;-50
2022/04/12 08:41:51;;;;;;;;;;;23.10;41.30;;;;;;6065566;27;19928;-48
2022/04/12 08:44:54;;;;;;;;;;;23.10;41.30;;;;;;6097846;27;20228;-46
2022/04/12 08:47:57;;;;;;;;;;;23.10;41.30;;;;;;6100934;28;20354;-47
2022/04/12 08:50:58;;;;;;;;;;;23.20;41.30;;;;;;6074615;28;19927;-46
2022/04/12 08:54:00;;;;;;;;;;;23.10;41.30;;;;;;6070865;27;19934;-45
2022/04/12 08:57:03;;;;;;;;;;;23.10;41.30;;;;;;6113200;27;19927;-46
2022/04/12 09:00:06;;;;;;;;;;;23.20;41.30;;;;;;6095341;27;19928;-47
2022/04/12 09:03:07;;;;;;;;;;;23.10;41.20;;;;;;6068973;28;20058;-47
2022/04/12 09:06:10;;;;;;;;;;;23.20;41.30;;;;;;6096366;28;19927;-46
2022/04/12 09:09:12;;;;;;;;;;;23.20;41.30;;;;;;6118538;27;19927;-46
2022/04/12 09:12:14;;;;;;;;;;;23.20;41.20;;;;;;6102200;28;19928;-46
2022/04/12 09:15:16;;;;;;;;;;;23.30;41.30;;;;;;6129642;28;19935;-45
2022/04/12 09:18:30;;;;;;;;;;;23.30;41.20;;;;;;6114407;28;21036;-47
2022/04/12 09:21:31;;;;;;;;;;;24.10;41.60;;;;;;6122557;27;19934;-51
2022/04/12 09:24:34;;;;;;;;;;;23.30;41.20;;;;;;6137676;27;21237;-46
2022/04/12 09:27:36;;;;;;;;;;;23.30;41.10;;;;;;6109070;27;19935;-48
2022/04/12 09:30:43;;;;;;;;;;;23.40;41.20;;;;;;6093039;28;20050;-49
2022/04/12 09:33:45;;;;;;;;;;;23.40;41.20;;;;;;6078401;28;19928;-49
2022/04/12 09:36:47;;;;;;;;;;;23.40;41.20;;;;;;6110001;27;19934;-46
2022/04/12 09:39:57;;;;;;;;;;;23.40;41.40;;;;;;6102330;27;20062;-48
2022/04/12 09:43:01;;;;;;;;;;;23.40;41.20;;;;;;6140402;27;21070;-45
2022/04/12 09:46:06;;;;;;;;;;;23.40;41.20;;;;;;6106733;28;19927;-45
2022/04/12 09:49:08;;;;;;;;;;;23.40;41.20;;;;;;6057495;28;20026;-46
2022/04/12 09:52:10;;;;;;;;;;;23.40;41.20;;;;;;6122859;27;19934;-49
2022/04/12 09:55:11;;;;;;;;;;;23.30;41.20;;;;;;6138391;27;19928;-47
2022/04/12 09:58:34;;;;;;;;;;;23.40;41.20;;;;;;6087958;28;19959;-46
2022/04/12 10:01:39;;;;;;;;;;;23.40;41.20;;;;;;6151057;27;20346;-45
2022/04/12 10:04:42;;;;;;;;;;;23.40;41.20;;;;;;6108552;28;19932;-46
2022/04/12 10:07:43;;;;;;;;;;;23.40;41.20;;;;;;6127081;28;20779;-48
2022/04/12 10:10:47;;;;;;;;;;;23.40;41.20;;;;;;6113772;28;19927;-46
2022/04/12 10:13:48;;;;;;;;;;;23.50;41.20;;;;;;6143377;27;19927;-49
2022/04/12 10:16:51;;;;;;;;;;;23.50;41.20;;;;;;6153172;27;19934;-45
2022/04/12 10:19:53;;;;;;;;;;;23.40;41.30;;;;;;6142099;27;19965;-46
2022/04/12 10:22:56;;;;;;;;;;;23.40;41.30;;;;;;6130685;27;22115;-45
2022/04/12 10:25:58;;;;;;;;;;;23.50;41.30;;;;;;6116987;28;20062;-46
2022/04/12 10:29:00;;;;;;;;;;;23.60;42.20;;;;;;6095277;27;20144;-46
2022/04/12 10:32:04;;;;;;;;;;;23.30;41.30;;;;;;6163964;27;19976;-47
2022/04/12 10:35:25;;;;;;;;;;;23.60;41.60;;;;;;6148565;27;21067;-46
2022/04/12 10:38:36;;;;;;;;;;;23.50;41.40;;;;;;6137389;27;19927;-46
2022/04/12 10:41:42;;;;;;;;;;;23.50;41.50;;;;;;6156333;27;19927;-50
2022/04/12 10:44:44;;;;;;;;;;;23.40;41.30;;;;;;6166752;27;20008;-47
2022/04/12 10:47:47;;;;;;;;;;;23.50;41.40;;;;;;6146655;28;19932;-45
2022/04/12 10:50:51;;;;;;;;;;;23.60;41.00;;;;;;6171953;28;19927;-46
2022/04/12 10:53:54;;;;;;;;;;;23.50;41.40;;;;;;6203350;27;21381;-47
2022/04/12 10:57:10;;;;;;;;;;;23.50;41.40;;;;;;6188192;28;19934;-47
2022/04/12 11:00:13;;;;;;;;;;;23.50;41.50;;;;;;6167519;27;19928;-46
2022/04/12 11:03:15;;;;;;;;;;;23.60;41.60;;;;;;6167637;27;20001;-47
2022/04/12 11:06:21;;;;;;;;;;;23.60;41.50;;;;;;6187902;28;20001;-47
2022/04/12 11:09:23;;;;;;;;;;;23.50;41.50;;;;;;6177498;27;21668;-46
2022/04/12 11:12:29;;;;;;;;;;;23.60;41.60;;;;;;6201519;27;20850;-48
2022/04/12 11:15:31;;;;;;;;;;;23.60;41.60;;;;;;6168125;28;19935;-47
2022/04/12 11:18:45;;;;;;;;;;;23.50;41.70;;;;;;6191069;27;21046;-46
2022/04/12 11:22:02;;;;;;;;;;;23.70;41.70;;;;;;6213095;27;20123;-48
2022/04/12 11:25:16;;;;;;;;;;;23.50;41.60;;;;;;6192419;28;19927;-46
2022/04/12 11:28:21;;;;;;;;;;;23.50;41.60;;;;;;6169230;28;21328;-47
2022/04/12 11:31:22;;;;;;;;;;;23.50;41.60;;;;;;6170708;27;19934;-48
2022/04/12 11:34:26;;;;;;;;;;;23.60;41.70;;;;;;6167752;28;21632;-44
2022/04/12 11:37:28;;;;;;;;;;;23.50;41.70;;;;;;6172298;27;20010;-44
2022/04/12 11:40:30;;;;;;;;;;;23.50;41.80;;;;;;6173114;27;20543;-43
2022/04/12 11:43:31;;;;;;;;;;;23.60;41.20;;;;;;6161509;27;19928;-45
2022/04/12 11:46:33;;;;;;;;;;;23.50;41.90;;;;;;6164561;28;19928;-49
2022/04/12 11:49:36;;;;;;;;;;;23.60;41.90;;;;;;6104342;27;19928;-48
2022/04/12 11:52:38;;;;;;;;;;;23.60;41.80;;;;;;6128711;28;25370;-48
2022/04/12 11:55:39;;;;;;;;;;;23.60;41.80;;;;;;6102899;28;21140;-47
2022/04/12 11:58:43;;;;;;;;;;;23.60;41.80;;;;;;6065349;27;19928;-46
2022/04/12 12:01:45;;;;;;;;;;;23.60;41.70;;;;;;6059349;28;19928;-47
2022/04/12 12:04:48;;;;;;;;;;;23.60;41.80;;;;;;6091922;27;19978;-48
2022/04/12 12:07:56;;;;;;;;;;;23.60;41.70;;;;;;6069408;28;19935;-49
2022/04/12 12:10:58;;;;;;;;;;;23.60;41.70;;;;;;6113179;28;19927;-45
2022/04/12 12:13:59;;;;;;;;;;;23.70;41.70;;;;;;6046632;27;20051;-46
2022/04/12 12:17:02;;;;;;;;;;;23.70;41.70;;;;;;6115762;28;19928;-46
2022/04/12 12:20:07;;;;;;;;;;;23.70;41.70;;;;;;6089595;28;19928;-45
2022/04/12 12:23:09;;;;;;;;;;;23.70;41.80;;;;;;6124056;27;19928;-46
2022/04/12 12:26:10;;;;;;;;;;;23.70;41.70;;;;;;6112339;27;20046;-45
2022/04/12 12:29:12;;;;;;;;;;;23.70;41.70;;;;;;6091233;27;19928;-45
2022/04/12 12:32:16;;;;;;;;;;;23.70;41.80;;;;;;6093453;27;19933;-45
2022/04/12 12:35:18;;;;;;;;;;;23.70;41.80;;;;;;6126180;27;20024;-50
2022/04/12 12:38:26;;;;;;;;;;;23.80;41.90;;;;;;6108557;28;19927;-47
2022/04/12 12:41:29;;;;;;;;;;;23.70;42.10;;;;;;6135079;27;22406;-47
2022/04/12 12:44:32;;;;;;;;;;;23.80;41.80;;;;;;6066086;28;19928;-44
2022/04/12 12:47:34;;;;;;;;;;;23.70;41.80;;;;;;6114768;27;22461;-46
2022/04/12 12:50:38;;;;;;;;;;;23.80;41.80;;;;;;6093617;27;19928;-46
2022/04/12 12:53:40;;;;;;;;;;;23.70;41.90;;;;;;6092908;28;19927;-47
2022/04/12 12:56:41;;;;;;;;;;;23.70;41.80;;;;;;6136828;28;24342;-48
2022/04/12 12:59:47;;;;;;;;;;;23.70;41.80;;;;;;6090355;27;20052;-47
2022/04/12 13:02:58;;;;;;;;;;;23.80;41.90;;;;;;6110675;27;20058;-49
2022/04/12 13:06:01;;;;;;;;;;;23.70;42.40;;;;;;6126509;27;19970;-46
2022/04/12 13:09:05;;;;;;;;;;;23.90;41.90;;;;;;6076844;27;22139;-46
2022/04/12 13:12:07;;;;;;;;;;;23.80;41.90;;;;;;6114843;28;19935;-47
2022/04/12 13:15:09;;;;;;;;;;;23.90;41.90;;;;;;6125319;27;19934;-45
2022/04/12 13:18:11;;;;;;;;;;;23.80;41.90;;;;;;6099441;27;19928;-47
2022/04/12 13:21:15;;;;;;;;;;;23.80;41.90;;;;;;6119330;27;19975;-47
2022/04/12 13:24:16;;;;;;;;;;;23.80;41.90;;;;;;6084590;27;19927;-44
2022/04/12 13:27:17;;;;;;;;;;;23.80;41.90;;;;;;6134852;27;21417;-46
2022/04/12 13:30:20;;;;;;;;;;;23.90;42.00;;;;;;6102242;27;20116;-46
2022/04/12 13:33:22;;;;;;;;;;;23.90;42.00;;;;;;6076031;27;34109;-48
2022/04/12 13:36:24;;;;;;;;;;;23.80;42.00;;;;;;6122899;28;20240;-45
2022/04/12 13:39:25;;;;;;;;;;;23.90;42.00;;;;;;6142714;28;20051;-46
2022/04/12 13:42:27;;;;;;;;;;;23.90;42.00;;;;;;6118841;27;19939;-46
2022/04/12 13:45:28;;;;;;;;;;;23.80;42.00;;;;;;6136869;27;20509;-45
2022/04/12 13:48:32;;;;;;;;;;;23.90;42.00;;;;;;6128663;27;21851;-47
2022/04/12 13:51:34;;;;;;;;;;;23.90;42.00;;;;;;6118620;28;20815;-46
2022/04/12 13:54:35;;;;;;;;;;;23.90;42.00;;;;;;6127868;27;21120;-44
2022/04/12 13:57:38;;;;;;;;;;;23.90;42.60;;;;;;6140377;27;19970;-47
2022/04/12 14:00:40;;;;;;;;;;;23.90;42.00;;;;;;6100254;28;19927;-46
2022/04/12 14:03:42;;;;;;;;;;;23.90;42.00;;;;;;6095381;28;20017;-44
2022/04/12 14:06:44;;;;;;;;;;;24.00;42.20;;;;;;6094424;28;20274;-47
2022/04/12 14:09:45;;;;;;;;;;;23.90;42.00;;;;;;6069286;27;19934;-46
2022/04/12 14:12:47;;;;;;;;;;;23.90;42.10;;;;;;6098727;27;19935;-51
2022/04/12 14:15:48;;;;;;;;;;;23.80;42.10;;;;;;6108709;27;19935;-48
2022/04/12 14:18:50;;;;;;;;;;;23.80;42.10;;;;;;6090600;28;19966;-48
2022/04/12 14:21:54;;;;;;;;;;;24.00;42.10;;;;;;6099879;28;22668;-48
2022/04/12 14:24:56;;;;;;;;;;;24.00;42.10;;;;;;6100197;27;20039;-47
2022/04/12 14:27:57;;;;;;;;;;;23.90;42.10;;;;;;6133255;27;19927;-45
2022/04/12 14:30:58;;;;;;;;;;;24.00;42.10;;;;;;6125048;27;19965;-46
2022/04/12 14:34:00;;;;;;;;;;;24.00;42.10;;;;;;6124245;27;19928;-45
2022/04/12 14:37:02;;;;;;;;;;;23.90;42.10;;;;;;6129653;27;19985;-45
2022/04/12 14:40:05;;;;;;;;;;;22.50;42.00;;;;;;6126375;27;19935;-44
2022/04/12 14:43:06;;;;;;;;;;;24.00;42.20;;;;;;6120580;27;21354;-48
2022/04/12 14:46:09;;;;;;;;;;;24.00;42.20;;;;;;6129709;27;22067;-47
2022/04/12 14:49:11;;;;;;;;;;;24.00;42.20;;;;;;6138012;28;20914;-45
2022/04/12 14:52:13;;;;;;;;;;;24.20;42.30;;;;;;6122389;27;19982;-46
2022/04/12 14:55:15;;;;;;;;;;;24.00;42.20;;;;;;6122291;27;19927;-46
2022/04/12 14:58:16;;;;;;;;;;;24.00;42.20;;;;;;6123440;27;19934;-46
2022/04/12 15:01:18;;;;;;;;;;;24.00;42.20;;;;;;6119907;27;19929;-46
2022/04/12 15:04:20;;;;;;;;;;;24.00;42.30;;;;;;6103426;28;19927;-44
2022/04/12 15:07:22;;;;;;;;;;;24.00;42.40;;;;;;6045032;28;19935;-46
2022/04/12 15:10:23;;;;;;;;;;;24.00;42.30;;;;;;6097497;27;19928;-45
2022/04/12 15:13:24;;;;;;;;;;;23.90;42.40;;;;;;6124167;27;19992;-47
2022/04/12 15:16:26;;;;;;;;;;;24.00;42.40;;;;;;6118278;27;20281;-47
2022/04/12 15:19:28;;;;;;;;;;;24.00;42.40;;;;;;6119932;27;19979;-44
2022/04/12 15:22:30;;;;;;;;;;;24.20;42.50;;;;;;6142360;27;20948;-49
2022/04/12 15:25:31;;;;;;;;;;;23.90;42.30;;;;;;6138234;27;19996;-47
2022/04/12 15:28:33;;;;;;;;;;;24.00;42.40;;;;;;6116845;27;19928;-46
2022/04/12 15:31:34;;;;;;;;;;;24.00;42.40;;;;;;6124883;27;19927;-44
2022/04/12 15:34:36;;;;;;;;;;;24.00;42.40;;;;;;6109239;28;19935;-45
2022/04/12 15:37:39;;;;;;;;;;;24.10;42.40;;;;;;6140342;27;19935;-47
2022/04/12 15:40:40;;;;;;;;;;;24.10;42.40;;;;;;6153852;27;19966;-47
2022/04/12 15:43:42;;;;;;;;;;;24.30;42.50;;;;;;6145526;27;20000;-46
2022/04/12 15:46:49;;;;;;;;;;;24.10;42.40;;;;;;6160754;27;20046;-47
2022/04/12 15:49:51;;;;;;;;;;;24.00;42.30;;;;;;6151874;27;19935;-44
2022/04/12 15:52:53;;;;;;;;;;;24.10;42.40;;;;;;6143490;27;19934;-45
2022/04/12 15:55:56;;;;;;;;;;;24.10;42.40;;;;;;6151778;27;19928;-46
2022/04/12 15:58:58;;;;;;;;;;;24.10;42.50;;;;;;6131995;27;21085;-45
2022/04/12 16:01:59;;;;;;;;;;;24.10;42.40;;;;;;6149247;27;21268;-45
2022/04/12 16:05:01;;;;;;;;;;;24.10;42.40;;;;;;6162545;27;19928;-51
2022/04/12 16:08:03;;;;;;;;;;;24.10;42.40;;;;;;6179248;27;19927;-47
2022/04/12 16:11:07;;;;;;;;;;;24.10;42.50;;;;;;6173968;27;19928;-45
2022/04/12 16:14:08;;;;;;;;;;;24.00;42.40;;;;;;6177873;27;19927;-45
2022/04/12 16:17:11;;;;;;;;;;;24.10;42.50;;;;;;6177466;28;20059;-46
2022/04/12 16:20:12;;;;;;;;;;;24.00;42.40;;;;;;6174909;28;20061;-45
2022/04/12 16:23:14;;;;;;;;;;;24.20;42.50;;;;;;6180535;28;21922;-49
2022/04/12 16:26:16;;;;;;;;;;;24.30;42.50;;;;;;6203219;28;20050;-48
2022/04/12 16:29:17;;;;;;;;;;;24.10;42.50;;;;;;6197400;27;19927;-49
2022/04/12 16:32:18;;;;;;;;;;;24.20;42.60;;;;;;6193609;27;19928;-46
2022/04/12 16:35:22;;;;;;;;;;;24.20;42.50;;;;;;6216953;27;19928;-47
2022/04/12 16:38:24;;;;;;;;;;;24.20;42.40;;;;;;6243281;27;19931;-43
2022/04/12 16:41:25;;;;;;;;;;;24.30;42.40;;;;;;6230217;28;19927;-47
2022/04/12 16:44:28;;;;;;;;;;;24.30;42.40;;;;;;6213153;28;20121;-47
2022/04/12 16:47:29;;;;;;;;;;;24.30;42.40;;;;;;6234910;27;21162;-47
2022/04/12 16:50:30;;;;;;;;;;;24.20;42.30;;;;;;6247934;27;21223;-45
2022/04/12 16:53:32;;;;;;;;;;;24.30;42.40;;;;;;6233984;27;20105;-45
2022/04/12 16:56:34;;;;;;;;;;;24.20;42.40;;;;;;6244965;27;21079;-45
2022/04/12 16:59:35;;;;;;;;;;;24.20;42.40;;;;;;6231596;28;20137;-50
2022/04/12 17:02:37;;;;;;;;;;;24.20;42.40;;;;;;6237821;27;21309;-47
2022/04/12 17:05:38;;;;;;;;;;;24.20;42.50;;;;;;6225708;28;20811;-49
2022/04/12 17:08:40;;;;;;;;;;;24.10;42.50;;;;;;6242632;27;20054;-47
2022/04/12 17:11:42;;;;;;;;;;;24.20;42.60;;;;;;6239156;27;20050;-49
2022/04/12 17:14:44;;;;;;;;;;;24.10;42.60;;;;;;6265913;27;19966;-46
2022/04/12 17:17:45;;;;;;;;;;;24.20;42.70;;;;;;6249002;28;19934;-50
2022/04/12 17:20:47;;;;;;;;;;;24.10;42.60;;;;;;6253692;28;20061;-50
2022/04/12 17:23:49;;;;;;;;;;;24.20;42.70;;;;;;6257792;27;19928;-50
2022/04/12 17:26:51;;;;;;;;;;;24.10;42.60;;;;;;6240664;28;19928;-46
2022/04/12 17:29:53;;;;;;;;;;;24.20;42.70;;;;;;6253398;28;20050;-47
2022/04/12 17:32:54;;;;;;;;;;;24.20;42.60;;;;;;6237258;28;19958;-49
2022/04/12 17:35:57;;;;;;;;;;;24.10;42.50;;;;;;6243364;27;20033;-48
2022/04/12 17:38:58;;;;;;;;;;;24.20;42.50;;;;;;6243298;28;20502;-48
2022/04/12 17:42:00;;;;;;;;;;;24.10;42.50;;;;;;6249339;27;20341;-49